Time;durP1;ratioP1;P1;durP2;ratioP2;P2;SDS_P1;SDS_P2;PMS_P1;PMS_P2;Temp;Humidity;BMP_temperature;BMP_pressure;BME280_temperature;BME280_humidity;BME280_pressure;Samples;Min_cycle;Max_cycle;Signal;HPM_P1;HPM_P2
2023/09/06 00:00:27;;;;;;;6.57;5.18;;;;;;;;;;5029893;28;20331;-69
2023/09/06 00:02:54;;;;;;;7.53;5.00;;;;;;;;;;5029778;28;20026;-71
2023/09/06 00:05:20;;;;;;;6.72;4.65;;;;;;;;;;5030236;28;20077;-70
2023/09/06 00:07:46;;;;;;;4.95;3.97;;;;;;;;;;5029958;28;20490;-69
2023/09/06 00:10:15;;;;;;;10.80;4.75;;;;;;;;;;5029755;28;20107;-70
2023/09/06 00:12:42;;;;;;;5.43;4.60;;;;;;;;;;5030237;28;20390;-70
2023/09/06 00:15:09;;;;;;;5.68;4.60;;;;;;;;;;5025476;28;20117;-70
2023/09/06 00:17:38;;;;;;;7.03;4.70;;;;;;;;;;5029953;28;20425;-70
2023/09/06 00:20:20;;;;;;;7.63;4.83;;;;;;;;;;5029761;28;20036;-70
2023/09/06 00:22:54;;;;;;;4.65;4.13;;;;;;;;;;5029521;28;20295;-69
2023/09/06 00:25:19;;;;;;;5.70;4.93;;;14.90;99.90;;;;;;5030294;28;20041;-70
2023/09/06 00:27:45;;;;;;;6.65;4.72;;;14.90;99.90;;;;;;5029890;28;20061;-70
2023/09/06 00:30:11;;;;;;;5.18;4.20;;;14.70;99.90;;;;;;5014736;28;20049;-69
2023/09/06 00:32:36;;;;;;;5.97;4.57;;;14.60;99.90;;;;;;5025803;28;20478;-70
2023/09/06 00:35:02;;;;;;;6.00;4.68;;;14.50;99.90;;;;;;5029768;28;20022;-70
2023/09/06 00:37:36;;;;;;;5.43;4.35;;;14.40;99.90;;;;;;5029875;28;20037;-70
2023/09/06 00:40:10;;;;;;;5.68;4.70;;;14.30;99.90;;;;;;5029738;28;20021;-70
2023/09/06 00:42:36;;;;;;;9.05;5.53;;;14.30;99.90;;;;;;5032685;28;20441;-70
2023/09/06 00:45:01;;;;;;;7.57;4.50;;;14.30;99.90;;;;;;5033548;28;20084;-70
2023/09/06 00:47:27;;;;;;;8.82;5.03;;;14.30;99.90;;;;;;5033056;28;20465;-69
2023/09/06 00:49:52;;;;;;;7.63;4.47;;;14.30;99.90;;;;;;5031307;28;20416;-70
2023/09/06 00:52:18;;;;;;;4.70;4.20;;;14.40;99.90;;;;;;5032455;28;20077;-69
2023/09/06 00:54:44;;;;;;;7.55;4.53;;;14.40;99.90;;;;;;5033109;28;20025;-69
2023/09/06 00:57:09;;;;;;;5.55;4.97;;;14.30;99.90;;;;;;5032594;28;20431;-69
2023/09/06 00:59:36;;;;;;;6.13;5.20;;;14.30;99.90;;;;;;5032893;28;20037;-68
2023/09/06 01:02:02;;;;;;;7.30;5.18;;;14.30;99.90;;;;;;5032733;28;20026;-70
2023/09/06 01:04:28;;;;;;;6.45;4.68;;;14.20;99.90;;;;;;5033111;28;20053;-69
2023/09/06 01:06:58;;;;;;;6.45;5.03;;;14.20;99.90;;;;;;5030119;28;20071;-69
2023/09/06 01:09:24;;;;;;;5.68;4.95;;;14.20;99.90;;;;;;5033115;28;20056;-69
2023/09/06 01:11:50;;;;;;;7.70;5.45;;;14.20;99.90;;;;;;5033458;28;20075;-69
2023/09/06 01:14:16;;;;;;;8.15;5.40;;;14.20;99.90;;;;;;5032181;28;20018;-69
2023/09/06 01:16:48;;;;;;;5.78;4.68;;;14.20;99.90;;;;;;5033440;28;20123;-69
2023/09/06 01:19:16;;;;;;;8.35;4.65;;;14.20;99.90;;;;;;5032085;28;20038;-70
2023/09/06 01:21:49;;;;;;;6.22;4.75;;;14.20;99.90;;;;;;5033447;28;20078;-68
2023/09/06 01:24:16;;;;;;;5.68;4.60;;;14.10;99.90;;;;;;5027505;28;20052;-69
2023/09/06 01:26:42;;;;;;;6.72;4.90;;;14.10;99.90;;;;;;5031699;28;20107;-69
2023/09/06 01:29:08;;;;;;;6.20;5.30;;;14.00;99.90;;;;;;5022406;28;20068;-69
2023/09/06 01:31:34;;;;;;;5.30;4.72;;;14.00;99.90;;;;;;5027611;28;20130;-70
2023/09/06 01:33:59;;;;;;;6.60;4.80;;;13.90;99.90;;;;;;5031718;28;20486;-71
2023/09/06 01:36:25;;;;;;;5.63;5.03;;;13.80;99.90;;;;;;5032672;28;20112;-69
2023/09/06 01:38:54;;;;;;;7.35;5.28;;;13.80;99.90;;;;;;5032567;28;20060;-70
2023/09/06 01:41:19;;;;;;;10.30;5.72;;;13.70;99.90;;;;;;5028797;28;20029;-70
2023/09/06 01:43:45;;;;;;;7.60;4.95;;;13.70;99.90;;;;;;5029921;28;20030;-69
2023/09/06 01:46:10;;;;;;;6.97;5.55;;;13.70;99.90;;;;;;5029861;28;20458;-70
2023/09/06 01:48:36;;;;;;;6.43;5.20;;;13.60;99.90;;;;;;5032317;28;20164;-69
2023/09/06 01:51:03;;;;;;;8.00;5.07;;;13.60;99.90;;;;;;5032064;28;20214;-70
2023/09/06 01:53:29;;;;;;;6.32;5.25;;;13.50;99.90;;;;;;5031018;28;20462;-69
2023/09/06 01:55:54;;;;;;;6.63;5.78;;;13.60;99.90;;;;;;5032853;28;20067;-69
2023/09/06 01:58:20;;;;;;;9.27;5.45;;;13.50;99.90;;;;;;5028062;28;20112;-72
2023/09/06 02:00:46;;;;;;;7.38;5.28;;;13.50;99.90;;;;;;5032532;28;20058;-69
2023/09/06 02:03:14;;;;;;;7.18;5.43;;;13.50;99.90;;;;;;5029764;28;20037;-69
2023/09/06 02:05:43;;;;;;;7.13;5.20;;;13.40;99.90;;;;;;5032407;28;20103;-69
2023/09/06 02:08:09;;;;;;;6.63;5.30;;;13.40;99.90;;;;;;5031083;28;20041;-70
2023/09/06 02:10:35;;;;;;;6.65;5.40;;;13.40;99.90;;;;;;5032448;28;20083;-69
2023/09/06 02:13:00;;;;;;;7.43;6.00;;;13.30;99.90;;;;;;5028317;28;20545;-70
2023/09/06 02:15:29;;;;;;;7.75;5.38;;;13.30;99.90;;;;;;5030510;28;20033;-69
2023/09/06 02:17:55;;;;;;;8.45;5.20;;;13.40;99.90;;;;;;5031700;28;20113;-69
2023/09/06 02:20:20;;;;;;;8.02;5.47;;;13.40;99.90;;;;;;5031546;28;20053;-69
2023/09/06 02:22:48;;;;;;;10.90;6.00;;;13.40;99.90;;;;;;5030818;28;20156;-70
2023/09/06 02:25:16;;;;;;;8.20;5.43;;;13.30;99.90;;;;;;5031443;28;20033;-70
2023/09/06 02:27:41;;;;;;;7.25;5.82;;;13.30;99.90;;;;;;5013790;28;20091;-70
2023/09/06 02:30:08;;;;;;;10.23;5.68;;;13.30;99.90;;;;;;5027165;28;20038;-70
2023/09/06 02:32:34;;;;;;;7.47;5.85;;;13.30;99.90;;;;;;5031369;28;20402;-70
2023/09/06 02:35:00;;;;;;;8.52;5.35;;;13.20;99.90;;;;;;5031385;28;20068;-70
2023/09/06 02:37:26;;;;;;;6.30;5.25;;;13.20;99.90;;;;;;5031656;28;20029;-69
2023/09/06 02:39:54;;;;;;;9.00;5.63;;;13.20;99.90;;;;;;5031752;28;20101;-69
2023/09/06 02:42:20;;;;;;;5.95;5.30;;;13.20;99.90;;;;;;5030716;28;20543;-70
2023/09/06 02:44:46;;;;;;;8.68;5.53;;;13.10;99.90;;;;;;5031277;28;20112;-69
2023/09/06 02:47:15;;;;;;;6.07;5.32;;;13.10;99.90;;;;;;5027416;28;20109;-70
2023/09/06 02:49:45;;;;;;;8.32;6.30;;;13.10;99.90;;;;;;5031121;28;20033;-70
2023/09/06 02:52:28;;;;;;;6.72;5.78;;;13.00;99.90;;;;;;5029462;28;20095;-70
2023/09/06 02:54:55;;;;;;;10.07;6.00;;;13.00;99.90;;;;;;5031786;28;20029;-69
2023/09/06 02:57:20;;;;;;;7.18;5.47;;;13.00;99.90;;;;;;5030874;28;20219;-69
2023/09/06 02:59:46;;;;;;;8.00;6.15;;;13.00;99.90;;;;;;5031089;28;20403;-70
2023/09/06 03:02:12;;;;;;;7.43;5.93;;;13.00;99.90;;;;;;5030612;28;20412;-70
2023/09/06 03:04:40;;;;;;;9.02;6.40;;;12.90;99.90;;;;;;5026591;28;20103;-69
2023/09/06 03:07:09;;;;;;;8.35;5.85;;;12.90;99.90;;;;;;5030782;28;20060;-70
2023/09/06 03:09:38;;;;;;;7.28;5.45;;;12.90;99.90;;;;;;5030781;28;20182;-69
2023/09/06 03:12:11;;;;;;;7.38;5.45;;;12.90;99.90;;;;;;5030255;28;20041;-70
2023/09/06 03:14:55;;;;;;;8.57;6.13;;;12.90;99.90;;;;;;5030852;28;20025;-69
2023/09/06 03:17:22;;;;;;;9.18;6.50;;;12.80;99.90;;;;;;5030557;28;20029;-69
2023/09/06 03:19:53;;;;;;;8.73;6.70;;;12.80;99.90;;;;;;5030217;28;20030;-70
2023/09/06 03:22:21;;;;;;;8.35;5.25;;;12.80;99.90;;;;;;5026256;28;20171;-69
2023/09/06 03:24:48;;;;;;;9.93;6.30;;;12.80;99.90;;;;;;5031060;28;20238;-69
2023/09/06 03:27:17;;;;;;;6.18;5.25;;;12.80;99.90;;;;;;5030369;28;20036;-69
2023/09/06 03:29:50;;;;;;;7.53;5.80;;;12.70;99.90;;;;;;5016898;28;20176;-69
2023/09/06 03:32:17;;;;;;;9.60;6.47;;;12.60;99.90;;;;;;5029881;28;20597;-69
2023/09/06 03:34:45;;;;;;;8.88;6.07;;;12.60;99.90;;;;;;5030501;28;20175;-69
2023/09/06 03:37:11;;;;;;;6.93;5.80;;;12.50;99.90;;;;;;5026979;28;20385;-70
2023/09/06 03:39:41;;;;;;;8.30;6.20;;;12.50;99.90;;;;;;5029712;28;20037;-69
2023/09/06 03:42:10;;;;;;;9.95;6.50;;;12.40;99.90;;;;;;5030275;28;20025;-70
2023/09/06 03:44:38;;;;;;;7.63;6.00;;;12.40;99.90;;;;;;5030308;28;20029;-69
2023/09/06 03:47:13;;;;;;;7.32;6.53;;;12.30;99.90;;;;;;5029896;28;20032;-70
2023/09/06 03:49:39;;;;;;;9.30;6.55;;;12.30;99.90;;;;;;5030408;28;20052;-69
2023/09/06 03:52:06;;;;;;;7.95;6.55;;;12.30;99.90;;;;;;5030160;28;20034;-71
2023/09/06 03:54:34;;;;;;;8.68;6.53;;;12.30;99.90;;;;;;5026328;28;20116;-69
2023/09/06 03:57:12;;;;;;;8.00;6.20;;;12.30;99.90;;;;;;5030758;28;20030;-70
2023/09/06 03:59:40;;;;;;;9.30;5.93;;;12.30;99.90;;;;;;5028800;28;20029;-69
2023/09/06 04:02:13;;;;;;;10.85;7.47;;;12.30;99.90;;;;;;5030153;28;20037;-70
2023/09/06 04:04:39;;;;;;;10.40;7.63;;;12.30;99.90;;;;;;5030285;28;20037;-69
2023/09/06 04:07:08;;;;;;;8.13;6.60;;;12.30;99.90;;;;;;5029978;28;20018;-70
2023/09/06 04:09:37;;;;;;;8.35;6.50;;;12.30;99.90;;;;;;5026803;28;20488;-70
2023/09/06 04:12:05;;;;;;;10.53;6.87;;;12.30;99.90;;;;;;5030025;28;20048;-70
2023/09/06 04:14:34;;;;;;;9.15;7.07;;;12.20;99.90;;;;;;5030169;28;20032;-69
2023/09/06 04:16:59;;;;;;;10.13;6.70;;;12.20;99.90;;;;;;5033023;28;20044;-69
2023/09/06 04:19:25;;;;;;;8.35;6.10;;;12.20;99.90;;;;;;5033366;28;20509;-69
2023/09/06 04:21:51;;;;;;;7.82;6.25;;;12.30;99.90;;;;;;5034810;28;20108;-69
2023/09/06 04:24:17;;;;;;;8.32;6.22;;;12.30;99.90;;;;;;5032215;28;20049;-70
2023/09/06 04:26:42;;;;;;;9.07;6.72;;;12.30;99.90;;;;;;5030782;28;20072;-69
2023/09/06 04:29:08;;;;;;;12.68;6.72;;;12.30;99.90;;;;;;5024510;28;20415;-70
2023/09/06 04:31:33;;;;;;;12.35;7.38;;;12.20;99.90;;;;;;5031093;28;20104;-69
2023/09/06 04:34:01;;;;;;;8.55;6.97;;;12.20;99.90;;;;;;5036465;28;20045;-68
2023/09/06 04:36:26;;;;;;;8.82;7.32;;;12.30;99.90;;;;;;5017757;28;20537;-69
2023/09/06 04:38:53;;;;;;;9.27;7.10;;;12.30;99.90;;;;;;5035846;28;20068;-69
2023/09/06 04:41:18;;;;;;;8.75;6.53;;;12.30;99.90;;;;;;5035780;28;20112;-70
2023/09/06 04:43:45;;;;;;;9.32;6.78;;;12.30;99.90;;;;;;5030725;28;20430;-69
2023/09/06 04:46:10;;;;;;;8.68;6.75;;;12.30;99.90;;;;;;5033892;28;20421;-69
2023/09/06 04:48:36;;;;;;;12.77;7.63;;;12.30;99.90;;;;;;5033607;28;20061;-69
2023/09/06 04:51:02;;;;;;;10.38;6.47;;;12.30;99.90;;;;;;5034356;28;20032;-69
2023/09/06 04:53:27;;;;;;;7.53;6.10;;;12.30;99.90;;;;;;5033144;28;20088;-69
2023/09/06 04:55:54;;;;;;;7.90;6.32;;;12.20;99.90;;;;;;5034011;28;20439;-69
2023/09/06 04:58:20;;;;;;;9.02;6.65;;;12.20;99.90;;;;;;5032744;28;20036;-69
2023/09/06 05:00:47;;;;;;;8.32;6.32;;;12.10;99.90;;;;;;5029442;28;20029;-69
2023/09/06 05:03:17;;;;;;;8.43;6.18;;;12.10;99.90;;;;;;5032630;28;20033;-69
2023/09/06 05:05:43;;;;;;;7.65;6.75;;;12.10;99.90;;;;;;5033919;28;20025;-69
2023/09/06 05:08:09;;;;;;;8.68;7.13;;;12.10;99.90;;;;;;5032484;28;20033;-70
2023/09/06 05:10:35;;;;;;;10.82;7.28;;;12.10;99.90;;;;;;5033951;28;20041;-70
2023/09/06 05:13:01;;;;;;;10.32;7.07;;;12.10;99.90;;;;;;5033041;28;20052;-69
2023/09/06 05:15:28;;;;;;;7.93;6.18;;;12.10;99.90;;;;;;5033225;28;20033;-71
2023/09/06 05:17:53;;;;;;;9.43;7.00;;;12.10;99.90;;;;;;5027273;28;20466;-73
2023/09/06 05:20:27;;;;;;;7.75;6.18;;;12.10;99.90;;;;;;5033762;28;20033;-75
2023/09/06 05:22:54;;;;;;;10.75;7.38;;;12.10;99.90;;;;;;5033200;28;20053;-73
2023/09/06 05:25:19;;;;;;;11.13;7.53;;;12.20;99.90;;;;;;5033526;28;20025;-74
2023/09/06 05:27:45;;;;;;;14.32;8.13;;;12.20;99.90;;;;;;5033159;28;20524;-74
2023/09/06 05:30:11;;;;;;;11.35;7.80;;;12.40;99.90;;;;;;5018244;28;20100;-74
2023/09/06 05:32:37;;;;;;;19.00;8.05;;;12.50;99.90;;;;;;5028677;28;20041;-73
2023/09/06 05:35:03;;;;;;;9.93;7.30;;;12.60;99.90;;;;;;5033923;28;20053;-73
2023/09/06 05:37:29;;;;;;;9.13;7.05;;;12.70;99.90;;;;;;5032022;28;20064;-75
2023/09/06 05:39:55;;;;;;;11.85;6.78;;;12.80;99.90;;;;;;5033563;28;20396;-74
2023/09/06 05:42:21;;;;;;;9.60;7.05;;;12.90;99.90;;;;;;5032874;28;20099;-79
2023/09/06 05:44:46;;;;;;;10.45;6.97;;;13.00;99.90;;;;;;5033026;28;20061;-73
2023/09/06 05:47:12;;;;;;;9.88;7.30;;;13.10;99.90;;;;;;5032988;28;20477;-73
2023/09/06 05:49:37;;;;;;;10.93;6.63;;;13.20;99.90;;;;;;5028924;28;20084;-73
2023/09/06 05:52:03;;;;;;;9.05;6.90;;;13.30;99.90;;;;;;5033104;28;20034;-71
2023/09/06 05:54:29;;;;;;;8.48;6.55;;;13.50;99.90;;;;;;5034931;28;20120;-72
2023/09/06 05:56:54;;;;;;;10.55;7.03;;;13.50;99.90;;;;;;5026764;28;20095;-71
2023/09/06 05:59:21;;;;;;;8.57;6.20;;;13.70;99.90;;;;;;5031837;28;20053;-73
2023/09/06 06:01:46;;;;;;;10.35;8.02;;;13.80;99.90;;;;;;5031653;28;20530;-71
2023/09/06 06:04:13;;;;;;;13.55;7.57;;;13.90;99.90;;;;;;5031580;28;20117;-73
2023/09/06 06:06:40;;;;;;;10.88;8.10;;;14.00;99.90;;;;;;5032968;28;20021;-73
2023/09/06 06:09:06;;;;;;;12.85;8.52;;;14.10;99.90;;;;;;5031749;28;20029;-78
2023/09/06 06:11:32;;;;;;;12.15;7.72;;;14.20;99.90;;;;;;5032376;28;20430;-73
2023/09/06 06:13:57;;;;;;;16.00;9.52;;;14.30;99.90;;;;;;5030367;28;21001;-73
2023/09/06 06:16:23;;;;;;;12.70;8.38;;;14.40;99.90;;;;;;5013727;28;20140;-72
2023/09/06 06:18:49;;;;;;;11.57;8.40;;;14.50;99.90;;;;;;5032118;28;20035;-71
2023/09/06 06:21:14;;;;;;;11.45;8.07;;;14.50;99.90;;;;;;5031886;28;20033;-73
2023/09/06 06:23:43;;;;;;;14.40;8.23;;;14.60;99.90;;;;;;5031068;28;20049;-73
2023/09/06 06:26:09;;;;;;;12.18;8.10;;;14.80;99.90;;;;;;5031798;28;20033;-76
2023/09/06 06:28:35;;;;;;;12.90;8.55;;;14.90;99.90;;;;;;5031757;28;20359;-72
2023/09/06 06:31:01;;;;;;;10.43;7.28;;;15.00;99.90;;;;;;5032251;28;20021;-72
2023/09/06 06:33:26;;;;;;;13.23;7.30;;;15.10;99.90;;;;;;5030901;28;20091;-72
2023/09/06 06:35:52;;;;;;;11.93;7.78;;;15.20;99.90;;;;;;5031816;28;20037;-72
2023/09/06 06:38:17;;;;;;;9.30;7.15;;;15.30;99.90;;;;;;5030611;28;20045;-72
2023/09/06 06:40:43;;;;;;;9.40;6.75;;;15.40;99.90;;;;;;5031599;28;20488;-72
2023/09/06 06:43:08;;;;;;;9.30;7.72;;;15.50;99.90;;;;;;5030788;28;20033;-77
2023/09/06 06:45:34;;;;;;;8.98;6.90;;;15.70;99.90;;;;;;5014260;28;20032;-72
2023/09/06 06:48:00;;;;;;;9.68;6.30;;;15.80;99.90;;;;;;5013380;28;20022;-73
2023/09/06 06:50:26;;;;;;;12.98;6.38;;;16.00;99.90;;;;;;5030742;28;20258;-72
2023/09/06 06:52:51;;;;;;;9.82;5.57;;;16.20;99.90;;;;;;5031163;28;20045;-72
2023/09/06 06:55:17;;;;;;;8.52;5.43;;;16.40;99.90;;;;;;5030840;28;20035;-66
2023/09/06 06:57:44;;;;;;;7.00;5.68;;;16.50;99.90;;;;;;5030623;28;20080;-66
2023/09/06 07:00:11;;;;;;;10.80;5.15;;;16.60;99.90;;;;;;5028084;28;20394;-67
2023/09/06 07:02:38;;;;;;;8.27;6.05;;;16.70;99.90;;;;;;5033962;28;20474;-67
2023/09/06 07:05:04;;;;;;;7.00;4.75;;;16.80;99.90;;;;;;5033344;28;20025;-66
2023/09/06 07:07:30;;;;;;;7.95;5.22;;;16.90;99.90;;;;;;5031292;28;20091;-67
2023/09/06 07:09:56;;;;;;;12.15;6.18;;;17.10;99.90;;;;;;5032086;28;20025;-66
2023/09/06 07:12:21;;;;;;;7.55;4.82;;;17.20;99.90;;;;;;5030291;28;20033;-67
2023/09/06 07:14:47;;;;;;;5.53;4.95;;;17.30;99.90;;;;;;5014023;28;20096;-66
2023/09/06 07:17:13;;;;;;;8.80;5.15;;;17.40;99.90;;;;;;5030820;28;20025;-67
2023/09/06 07:19:38;;;;;;;5.03;4.20;;;17.50;99.90;;;;;;5030458;28;20374;-66
2023/09/06 07:22:04;;;;;;;9.00;5.20;;;17.70;99.90;;;;;;5028130;28;20029;-66
2023/09/06 07:24:29;;;;;;;7.18;4.72;;;17.80;99.90;;;;;;5032079;28;20486;-66
2023/09/06 07:26:55;;;;;;;8.77;5.30;;;17.90;99.90;;;;;;5030987;28;20029;-66
2023/09/06 07:29:22;;;;;;;7.47;5.40;;;18.20;99.90;;;;;;5030349;28;20493;-66
2023/09/06 07:31:48;;;;;;;10.50;5.82;;;18.20;99.90;;;;;;5031245;28;20026;-66
2023/09/06 07:34:13;;;;;;;10.50;5.28;;;18.40;99.90;;;;;;5026083;28;20116;-66
2023/09/06 07:36:39;;;;;;;9.48;4.93;;;18.40;99.90;;;;;;5010155;28;20131;-66
2023/09/06 07:39:05;;;;;;;6.95;5.10;;;18.60;99.90;;;;;;5030530;28;20045;-66
2023/09/06 07:41:30;;;;;;;10.02;5.43;;;18.70;99.90;;;;;;5031215;28;20036;-66
2023/09/06 07:43:56;;;;;;;7.60;5.13;;;18.70;99.90;;;;;;5030509;28;20041;-66
2023/09/06 07:46:25;;;;;;;10.93;5.65;;;18.80;99.90;;;;;;5030417;28;20127;-66
2023/09/06 07:48:51;;;;;;;11.60;7.10;;;19.00;99.90;;;;;;5029988;28;20141;-67
2023/09/06 07:51:17;;;;;;;9.88;5.68;;;19.10;99.90;;;;;;5031239;28;20049;-66
2023/09/06 07:53:43;;;;;;;9.55;5.70;;;19.20;99.90;;;;;;5034476;28;20485;-66
2023/09/06 07:56:08;;;;;;;10.90;6.47;;;19.30;99.90;;;;;;5033322;28;20087;-68
2023/09/06 07:58:34;;;;;;;23.80;6.97;;;19.50;99.90;;;;;;5034515;28;20033;-66
2023/09/06 08:01:01;;;;;;;10.30;5.72;;;19.50;99.90;;;;;;5035410;28;20030;-66
2023/09/06 08:03:27;;;;;;;12.88;5.45;;;19.60;99.90;;;;;;5034913;28;20025;-68
2023/09/06 08:05:54;;;;;;;10.10;5.65;;;19.70;99.90;;;;;;5041306;28;20097;-66
2023/09/06 08:08:20;;;;;;;7.07;4.85;;;19.70;99.90;;;;;;5038890;28;20022;-71
2023/09/06 08:10:46;;;;;;;5.60;4.50;;;19.80;99.90;;;;;;5036744;28;20036;-71
2023/09/06 08:13:12;;;;;;;8.27;4.82;;;20.00;99.90;;;;;;5033341;28;20045;-71
2023/09/06 08:15:38;;;;;;;7.65;5.00;;;20.10;99.90;;;;;;5035488;28;20033;-73
2023/09/06 08:18:06;;;;;;;7.07;5.07;;;20.20;99.90;;;;;;5034702;28;20374;-66
2023/09/06 08:20:32;;;;;;;8.60;5.20;;;20.30;99.90;;;;;;5034401;28;20041;-66
2023/09/06 08:22:57;;;;;;;6.97;4.63;;;20.40;99.90;;;;;;5033713;28;20446;-67
2023/09/06 08:25:23;;;;;;;8.70;5.18;;;20.50;99.90;;;;;;5034021;28;20025;-71
2023/09/06 08:27:50;;;;;;;10.63;5.82;;;20.70;99.90;;;;;;5033758;28;20025;-67
2023/09/06 08:30:18;;;;;;;7.07;5.50;;;20.90;99.90;;;;;;5041530;28;20113;-68
2023/09/06 08:32:51;;;;;;;11.27;6.03;;;;;;;;;;5042071;28;20067;-67
2023/09/06 08:35:17;;;;;;;8.52;5.30;;;;;;;;;;5037048;28;20016;-68
2023/09/06 08:37:47;;;;;;;15.65;6.47;;;;;;;;;;5039195;28;20041;-67
2023/09/06 08:40:15;;;;;;;8.68;5.90;;;;;;;;;;5041039;28;20017;-68
2023/09/06 08:42:44;;;;;;;7.22;5.22;;;21.20;99.90;;;;;;5034416;28;20025;-66
2023/09/06 08:45:11;;;;;;;7.43;5.45;;;21.20;99.90;;;;;;5032868;28;20517;-67
2023/09/06 08:47:39;;;;;;;12.00;6.10;;;21.30;99.90;;;;;;5033135;28;20497;-66
2023/09/06 08:50:10;;;;;;;9.60;5.50;;;21.30;99.90;;;;;;5015833;28;20068;-66
2023/09/06 08:52:43;;;;;;;10.10;5.97;;;21.40;99.90;;;;;;5032976;28;20532;-66
2023/09/06 08:55:10;;;;;;;9.93;4.97;;;21.40;99.90;;;;;;5032667;28;21142;-67
2023/09/06 08:57:40;;;;;;;8.60;5.07;;;21.50;99.90;;;;;;5032596;28;20026;-66
2023/09/06 09:00:11;;;;;;;9.60;4.82;;;21.50;99.90;;;;;;5032824;28;20033;-66
2023/09/06 09:02:40;;;;;;;6.97;5.22;;;21.60;99.90;;;;;;5032125;28;20120;-70
2023/09/06 09:05:06;;;;;;;8.10;4.70;;;21.70;99.90;;;;;;5033067;28;20029;-67
2023/09/06 09:07:32;;;;;;;7.97;4.82;;;21.80;99.90;;;;;;5032645;28;20155;-66
2023/09/06 09:10:01;;;;;;;7.53;4.47;;;21.90;99.90;;;;;;5033953;28;20112;-67
2023/09/06 09:12:28;;;;;;;8.05;4.50;;;22.10;99.90;;;;;;5032245;28;20099;-67
2023/09/06 09:14:54;;;;;;;7.78;4.97;;;22.20;99.90;;;;;;5033952;28;20497;-65
2023/09/06 09:17:22;;;;;;;5.88;4.38;;;22.40;99.90;;;;;;5028859;28;20394;-66
2023/09/06 09:19:49;;;;;;;7.25;4.38;;;22.50;99.90;;;;;;5033111;28;20079;-66
2023/09/06 09:22:20;;;;;;;6.68;4.93;;;22.70;99.90;;;;;;5032566;28;20112;-66
2023/09/06 09:24:46;;;;;;;9.98;5.03;;;22.80;99.90;;;;;;5033120;28;20164;-66
2023/09/06 09:27:12;;;;;;;7.60;4.53;;;22.80;99.90;;;;;;5032778;28;20033;-66
2023/09/06 09:29:38;;;;;;;9.90;4.85;;;22.90;99.90;;;;;;5032988;28;20116;-66
2023/09/06 09:32:04;;;;;;;6.68;5.40;;;22.90;99.90;;;;;;5015381;28;20045;-65
2023/09/06 09:34:30;;;;;;;8.35;5.63;;;23.00;99.90;;;;;;5021063;28;20025;-65
2023/09/06 09:36:56;;;;;;;12.43;6.38;;;23.00;99.90;;;;;;5033460;28;20026;-66
2023/09/06 09:39:27;;;;;;;14.75;5.53;;;22.90;99.90;;;;;;5031798;28;20057;-68
2023/09/06 09:41:57;;;;;;;27.10;7.20;;;22.80;99.90;;;;;;5032428;28;20037;-65
2023/09/06 09:44:23;;;;;;;17.38;5.75;;;22.80;99.90;;;;;;5032108;28;20033;-65
2023/09/06 09:46:53;;;;;;;8.75;5.75;;;22.90;99.90;;;;;;5033450;28;20021;-65
2023/09/06 09:49:21;;;;;;;9.93;5.82;;;23.10;99.90;;;;;;5031940;28;20029;-65
2023/09/06 09:51:50;;;;;;;13.18;5.57;;;23.10;99.90;;;;;;5029523;28;20025;-65
2023/09/06 09:54:17;;;;;;;11.25;5.93;;;23.00;99.90;;;;;;5031916;28;20038;-66
2023/09/06 09:56:51;;;;;;;8.68;5.97;;;23.10;99.90;;;;;;5033642;28;20068;-65
2023/09/06 09:59:20;;;;;;;10.77;5.15;;;23.20;99.90;;;;;;5027751;28;20033;-67
2023/09/06 10:01:51;;;;;;;9.85;5.47;;;23.30;99.90;;;;;;5033319;28;20037;-73
2023/09/06 10:04:19;;;;;;;14.98;5.95;;;23.40;99.90;;;;;;5032258;28;20476;-74
2023/09/06 10:06:46;;;;;;;6.28;5.68;;;23.50;99.90;;;;;;5032884;28;20025;-69
2023/09/06 10:09:14;;;;;;;9.95;5.20;;;23.60;99.90;;;;;;5032086;28;20455;-72
2023/09/06 10:11:41;;;;;;;12.20;5.95;;;23.70;99.90;;;;;;5032487;28;20374;-71
2023/09/06 10:14:11;;;;;;;10.30;5.95;;;23.80;99.90;;;;;;5029288;28;20044;-71
2023/09/06 10:16:38;;;;;;;9.50;5.57;;;23.90;99.90;;;;;;5031508;28;20064;-69
2023/09/06 10:19:04;;;;;;;8.55;5.18;;;24.10;99.90;;;;;;5032197;28;20385;-69
2023/09/06 10:21:31;;;;;;;6.85;5.10;;;24.10;99.90;;;;;;5032016;28;20037;-66
2023/09/06 10:23:58;;;;;;;7.47;4.75;;;24.20;99.90;;;;;;5031417;28;20061;-69
2023/09/06 10:26:30;;;;;;;7.65;5.70;;;24.30;99.90;;;;;;5032074;28;20061;-68
2023/09/06 10:29:00;;;;;;;7.53;5.43;;;24.60;99.90;;;;;;5032233;28;20025;-68
2023/09/06 10:31:45;;;;;;;9.60;6.05;;;24.70;99.90;;;;;;5027248;28;20493;-69
2023/09/06 10:34:12;;;;;;;9.48;5.05;;;24.90;99.90;;;;;;5030253;28;20038;-70
2023/09/06 10:37:00;;;;;;;6.28;5.10;;;24.90;99.90;;;;;;5032175;28;20250;-66
2023/09/06 10:39:28;;;;;;;5.05;4.30;;;;;;;;;;5032917;28;20026;-67
2023/09/06 10:42:11;;;;;;;10.23;5.20;;;;;;;;;;5025507;28;20048;-66
2023/09/06 10:44:58;;;;;;;8.73;5.13;;;;;;;;;;5027157;28;20099;-72
2023/09/06 10:47:25;;;;;;;6.15;4.85;;;25.50;99.90;;;;;;5030977;28;20550;-68
2023/09/06 10:50:12;;;;;;;8.05;5.13;;;25.60;99.90;;;;;;5031696;28;20060;-66
2023/09/06 10:52:42;;;;;;;8.77;5.20;;;25.70;99.90;;;;;;5030410;28;20051;-66
2023/09/06 10:55:16;;;;;;;6.85;4.53;;;25.70;99.90;;;;;;5031746;28;20113;-66
2023/09/06 10:57:56;;;;;;;5.18;4.57;;;25.90;99.90;;;;;;5013606;28;21325;-66
2023/09/06 11:00:27;;;;;;;5.93;4.82;;;26.10;99.90;;;;;;5030011;28;20166;-67
2023/09/06 11:03:08;;;;;;;6.55;4.72;;;26.30;99.90;;;;;;5029081;28;20037;-66
2023/09/06 11:05:40;;;;;;;4.90;4.30;;;26.60;99.90;;;;;;5030607;28;20124;-66
2023/09/06 11:08:08;;;;;;;8.15;5.20;;;26.70;99.90;;;;;;5030547;28;20030;-66
2023/09/06 11:10:35;;;;;;;5.68;4.53;;;26.70;99.90;;;;;;5030424;28;20033;-67
2023/09/06 11:13:11;;;;;;;6.90;5.25;;;26.70;99.90;;;;;;5030800;28;20055;-64
2023/09/06 11:15:38;;;;;;;9.45;5.15;;;26.70;99.90;;;;;;5030567;28;20040;-66
2023/09/06 11:18:05;;;;;;;11.52;5.15;;;26.80;99.90;;;;;;5031784;28;20066;-66
2023/09/06 11:20:31;;;;;;;7.90;5.15;;;26.80;99.90;;;;;;5031876;28;20017;-66
2023/09/06 11:22:58;;;;;;;5.53;4.38;;;26.90;99.90;;;;;;5030695;28;20492;-66
2023/09/06 11:25:25;;;;;;;5.75;4.97;;;27.10;99.90;;;;;;5029779;28;20079;-67
2023/09/06 11:27:51;;;;;;;9.75;5.13;;;27.30;99.90;;;;;;5030484;28;20033;-66
2023/09/06 11:30:22;;;;;;;6.07;4.38;;;27.50;99.90;;;;;;5030208;28;20355;-67
2023/09/06 11:32:56;;;;;;;5.80;4.63;;;27.80;99.90;;;;;;5030480;28;20121;-66
2023/09/06 11:35:27;;;;;;;4.07;3.65;;;27.90;99.90;;;;;;5029847;28;20025;-67
2023/09/06 11:37:54;;;;;;;8.48;4.18;;;28.00;99.90;;;;;;5015000;28;20021;-66
2023/09/06 11:40:21;;;;;;;5.88;4.38;;;28.10;95.80;;;;;;5029947;28;20108;-67
2023/09/06 11:42:54;;;;;;;8.77;5.03;;;28.40;95.10;;;;;;5030000;28;20148;-66
2023/09/06 11:45:21;;;;;;;12.85;4.25;;;28.70;94.80;;;;;;5029613;28;20048;-65
2023/09/06 11:47:48;;;;;;;8.48;4.80;;;28.90;94.30;;;;;;5030264;28;20026;-65
2023/09/06 11:50:19;;;;;;;4.70;4.00;;;29.10;93.30;;;;;;5030942;28;20021;-67
2023/09/06 11:53:08;;;;;;;6.63;4.57;;;29.00;92.90;;;;;;5029949;28;20774;-66
2023/09/06 11:55:34;;;;;;;;;;;29.00;92.30;;;;;;5030077;28;20025;-66
2023/09/06 11:58:00;;;;;;;5.00;4.32;;;29.00;92.40;;;;;;5030102;28;19909;-66
2023/09/06 12:00:42;;;;;;;5.80;5.13;;;28.80;91.90;;;;;;5029489;28;20049;-66
2023/09/06 12:03:13;;;;;;;8.05;4.63;;;28.60;92.10;;;;;;5031701;28;20029;-65
2023/09/06 12:05:47;;;;;;;5.93;4.55;;;28.30;92.00;;;;;;5032375;28;20045;-65
2023/09/06 12:08:17;;;;;;;5.55;4.55;;;28.10;91.80;;;;;;5031541;28;20033;-65
2023/09/06 12:11:05;;;;;;;5.55;4.05;;;28.40;91.90;;;;;;5031670;28;20033;-66
2023/09/06 12:13:34;;;;;;;5.40;4.07;;;28.60;91.30;;;;;;5031484;28;20029;-65
2023/09/06 12:16:01;;;;;;;4.80;4.07;;;28.50;90.90;;;;;;5031221;28;20076;-66
2023/09/06 12:18:30;;;;;;;5.47;4.53;;;28.40;91.00;;;;;;5029619;28;20040;-66
2023/09/06 12:20:59;;;;;;;5.20;4.70;;;28.80;90.90;;;;;;5030335;28;20406;-66
2023/09/06 12:23:28;;;;;;;4.93;4.43;;;29.20;90.30;;;;;;5028392;28;20038;-66
2023/09/06 12:25:57;;;;;;;5.00;4.28;;;29.60;89.20;;;;;;5030697;28;20032;-66
2023/09/06 12:28:23;;;;;;;6.13;4.47;;;29.90;89.10;;;;;;5029043;28;20087;-67
2023/09/06 12:30:54;;;;;;;5.38;3.95;;;29.90;87.20;;;;;;5030296;28;20025;-66
2023/09/06 12:33:23;;;;;;;4.43;4.03;;;29.60;86.80;;;;;;5028944;28;20038;-67
2023/09/06 12:35:58;;;;;;;4.57;3.95;;;29.60;87.00;;;;;;5024089;28;20490;-65
2023/09/06 12:38:25;;;;;;;4.75;4.35;;;29.60;86.70;;;;;;5031693;28;20041;-67
2023/09/06 12:40:51;;;;;;;5.25;4.53;;;29.70;87.40;;;;;;5034256;28;20029;-66
2023/09/06 12:43:16;;;;;;;5.20;4.60;;;30.10;88.20;;;;;;5033496;28;20470;-67
2023/09/06 12:45:42;;;;;;;4.95;4.45;;;30.30;85.10;;;;;;5033321;28;20374;-66
2023/09/06 12:48:08;;;;;;;6.70;4.97;;;30.70;85.40;;;;;;5033171;28;20033;-67
2023/09/06 12:50:34;;;;;;;4.97;4.40;;;31.10;84.90;;;;;;5032982;28;20044;-66
2023/09/06 12:52:59;;;;;;;6.72;4.80;;;31.30;82.70;;;;;;5033780;28;20030;-66